createdAt,value
2018-12-23T00:01:45.142Z,11.27
2018-12-23T00:04:12.847Z,11.63
2018-12-23T00:06:40.558Z,12.73
2018-12-23T00:09:08.286Z,11.53
2018-12-23T00:11:35.958Z,11.80
2018-12-23T00:14:03.827Z,11.20
2018-12-23T00:16:31.612Z,13.53
2018-12-23T00:18:59.260Z,11.53
2018-12-23T00:21:26.964Z,11.47
2018-12-23T00:23:54.647Z,11.83
2018-12-23T00:26:22.340Z,10.93
2018-12-23T00:28:50.064Z,10.63
2018-12-23T00:31:17.775Z,12.23
2018-12-23T00:33:45.473Z,11.93
2018-12-23T00:36:13.258Z,11.40
2018-12-23T00:38:40.934Z,10.63
2018-12-23T00:41:08.671Z,10.67
2018-12-23T00:43:36.548Z,10.57
2018-12-23T00:46:04.271Z,10.73
2018-12-23T00:48:31.992Z,10.03
2018-12-23T00:50:59.706Z,9.03
2018-12-23T00:53:27.412Z,8.73
2018-12-23T00:55:55.239Z,9.57
2018-12-23T00:58:22.962Z,9.70
2018-12-23T01:00:50.643Z,8.33
2018-12-23T01:03:18.345Z,8.37
2018-12-23T01:05:46.064Z,8.60
2018-12-23T01:08:13.808Z,8.10
2018-12-23T01:10:41.510Z,9.33
2018-12-23T01:13:09.284Z,8.07
2018-12-23T01:15:36.981Z,8.37
2018-12-23T01:18:04.689Z,8.50
2018-12-23T01:20:32.418Z,8.03
2018-12-23T01:23:00.149Z,8.70
2018-12-23T01:25:27.840Z,8.37
2018-12-23T01:27:55.637Z,9.07
2018-12-23T01:30:23.356Z,6.77
2018-12-23T01:32:51.031Z,7.97
2018-12-23T01:35:18.746Z,7.47
2018-12-23T01:37:46.415Z,8.20
2018-12-23T01:40:14.148Z,7.20
2018-12-23T01:42:41.910Z,7.37
2018-12-23T01:45:09.743Z,7.87
2018-12-23T01:47:37.442Z,5.90
2018-12-23T01:50:05.220Z,8.77
2018-12-23T01:52:33.007Z,7.03
2018-12-23T01:55:00.722Z,8.73
2018-12-23T01:57:28.431Z,8.77
2018-12-23T01:59:56.092Z,6.77
2018-12-23T02:02:23.806Z,6.60
2018-12-23T02:04:51.512Z,7.40
2018-12-23T02:07:19.335Z,6.43
2018-12-23T02:09:47.101Z,5.13
2018-12-23T02:12:14.834Z,5.73
2018-12-23T02:14:42.532Z,5.57
2018-12-23T02:17:10.307Z,4.07
2018-12-23T02:19:38.179Z,5.73
2018-12-23T02:22:05.892Z,6.43
2018-12-23T02:24:33.583Z,6.07
2018-12-23T02:27:01.338Z,6.03
2018-12-23T02:29:29.028Z,6.23
2018-12-23T02:31:56.757Z,5.40
2018-12-23T02:34:24.625Z,6.30
2018-12-23T02:36:52.317Z,5.57
2018-12-23T02:39:20.040Z,5.13
2018-12-23T02:41:47.950Z,5.13
2018-12-23T02:44:15.767Z,4.83
2018-12-23T02:46:43.480Z,5.00
2018-12-23T02:49:11.231Z,5.27
2018-12-23T02:51:38.931Z,4.93
2018-12-23T02:54:06.621Z,4.93
2018-12-23T02:56:34.349Z,5.07
2018-12-23T02:59:02.095Z,5.77
2018-12-23T03:01:29.795Z,6.27
2018-12-23T03:03:57.530Z,6.23
2018-12-23T03:06:25.227Z,6.17
2018-12-23T03:08:52.926Z,5.90
2018-12-23T03:11:20.622Z,3.53
2018-12-23T03:13:48.331Z,5.13
2018-12-23T03:16:16.516Z,5.17
2018-12-23T03:18:44.280Z,5.57
2018-12-23T03:21:12.002Z,5.17
2018-12-23T03:23:39.834Z,4.23
2018-12-23T03:26:07.592Z,5.70
2018-12-23T03:28:35.290Z,4.10
2018-12-23T03:31:03.006Z,5.40
2018-12-23T03:33:30.732Z,4.30
2018-12-23T03:35:58.455Z,3.90
2018-12-23T03:38:26.132Z,5.27
2018-12-23T03:40:54.187Z,6.33
2018-12-23T03:43:21.913Z,11.70
2018-12-23T03:45:49.720Z,14.90
2018-12-23T03:48:17.542Z,9.40
2018-12-23T03:50:45.262Z,5.77
2018-12-23T03:53:13.091Z,5.57
2018-12-23T03:55:40.796Z,4.20
2018-12-23T03:58:08.470Z,5.90
2018-12-23T04:00:36.196Z,8.97
2018-12-23T04:03:03.914Z,7.67
2018-12-23T04:05:31.718Z,5.70
2018-12-23T04:07:59.439Z,5.83
2018-12-23T04:10:27.153Z,4.80
2018-12-23T04:12:54.895Z,4.57
2018-12-23T04:15:22.651Z,5.00
2018-12-23T04:17:50.396Z,5.23
2018-12-23T04:20:18.093Z,5.40
2018-12-23T04:22:45.848Z,6.10
2018-12-23T04:25:13.595Z,5.10
2018-12-23T04:27:41.337Z,5.50
2018-12-23T04:30:09.177Z,5.23
2018-12-23T04:32:36.930Z,5.40
2018-12-23T04:35:04.733Z,5.30
2018-12-23T04:37:32.441Z,5.77
2018-12-23T04:40:00.205Z,5.20
2018-12-23T04:42:27.938Z,6.07
2018-12-23T04:44:55.636Z,5.33
2018-12-23T04:47:23.396Z,5.33
2018-12-23T04:49:51.095Z,5.23
2018-12-23T04:52:18.848Z,5.43
2018-12-23T04:54:46.589Z,5.27
2018-12-23T04:57:14.352Z,4.50
2018-12-23T04:59:42.094Z,5.63
2018-12-23T05:02:09.864Z,5.17
2018-12-23T05:04:37.616Z,5.23
2018-12-23T05:07:05.297Z,5.17
2018-12-23T05:09:33.028Z,5.17
2018-12-23T05:12:00.736Z,4.80
2018-12-23T05:14:28.512Z,5.33
2018-12-23T05:16:56.236Z,4.53
2018-12-23T05:19:23.932Z,6.40
2018-12-23T05:21:51.701Z,8.40
2018-12-23T05:24:19.380Z,5.50
2018-12-23T05:26:47.087Z,5.80
2018-12-23T05:29:14.811Z,5.50
2018-12-23T05:31:42.494Z,6.17
2018-12-23T05:34:10.206Z,6.67
2018-12-23T05:36:37.951Z,5.73
2018-12-23T05:39:07.058Z,6.20
2018-12-23T05:41:34.761Z,5.93
2018-12-23T05:44:02.601Z,5.97
2018-12-23T05:46:30.282Z,7.20
2018-12-23T05:48:57.980Z,6.47
2018-12-23T05:51:25.736Z,6.93
2018-12-23T05:53:53.496Z,6.60
2018-12-23T05:56:21.245Z,5.90
2018-12-23T05:58:48.980Z,8.17
2018-12-23T06:01:16.715Z,6.50
2018-12-23T06:03:44.390Z,6.37
2018-12-23T06:06:12.088Z,6.60
2018-12-23T06:08:39.748Z,6.63
2018-12-23T06:11:07.464Z,7.30
2018-12-23T06:13:35.174Z,6.77
2018-12-23T06:16:02.871Z,8.10
2018-12-23T06:18:30.651Z,5.47
2018-12-23T06:20:58.491Z,6.13
2018-12-23T06:23:26.238Z,6.37
2018-12-23T06:25:53.998Z,6.70
2018-12-23T06:28:21.717Z,6.57
2018-12-23T06:30:49.412Z,5.33
2018-12-23T06:33:17.160Z,6.17
2018-12-23T06:35:44.958Z,6.80
2018-12-23T06:38:12.655Z,6.83
2018-12-23T06:40:40.355Z,7.43
2018-12-23T06:43:08.084Z,7.47
2018-12-23T06:45:35.765Z,6.90
2018-12-23T06:48:03.549Z,7.07
2018-12-23T06:50:31.341Z,7.77
2018-12-23T06:52:59.077Z,7.80
2018-12-23T06:55:26.783Z,6.27
2018-12-23T06:57:54.516Z,7.50
2018-12-23T07:00:22.268Z,6.50
2018-12-23T07:02:50.009Z,6.90
2018-12-23T07:05:17.719Z,6.70
2018-12-23T07:07:45.389Z,6.80
2018-12-23T07:10:13.119Z,8.47
2018-12-23T07:12:40.831Z,8.20
2018-12-23T07:15:08.532Z,6.63
2018-12-23T07:17:36.283Z,7.97
2018-12-23T07:20:04.792Z,7.83
2018-12-23T07:22:32.703Z,8.53
2018-12-23T07:25:00.415Z,7.63
2018-12-23T07:27:28.180Z,6.53
2018-12-23T07:29:55.941Z,7.00
2018-12-23T07:32:23.681Z,8.33
2018-12-23T07:34:51.367Z,8.20
2018-12-23T07:37:27.245Z,8.57
2018-12-23T07:39:48.824Z,8.07
2018-12-23T07:42:16.564Z,8.90
2018-12-23T07:44:44.354Z,10.13
2018-12-23T07:47:12.085Z,8.33
2018-12-23T07:49:39.801Z,7.63
2018-12-23T07:52:07.585Z,8.23
2018-12-23T07:54:35.318Z,8.87
2018-12-23T07:57:03.098Z,6.80
2018-12-23T07:59:30.836Z,9.60
2018-12-23T08:01:58.654Z,9.30
2018-12-23T08:04:26.369Z,9.47
2018-12-23T08:06:54.067Z,10.63
2018-12-23T08:09:21.813Z,9.67
2018-12-23T08:11:49.537Z,9.70
2018-12-23T08:14:17.300Z,9.30
2018-12-23T08:16:45.009Z,10.60
2018-12-23T08:19:12.817Z,8.50
2018-12-23T08:21:40.945Z,9.57
2018-12-23T08:24:09.067Z,10.50
2018-12-23T08:26:36.898Z,9.67
2018-12-23T08:29:04.643Z,10.23
2018-12-23T08:31:32.413Z,8.93
2018-12-23T08:34:00.233Z,9.13
2018-12-23T08:36:27.980Z,9.33
2018-12-23T08:38:55.774Z,8.93
2018-12-23T08:41:23.538Z,9.80
2018-12-23T08:43:51.251Z,10.67
2018-12-23T08:46:19.009Z,11.17
2018-12-23T08:48:46.753Z,8.27
2018-12-23T08:51:14.531Z,9.20
2018-12-23T08:53:42.273Z,10.63
2018-12-23T08:56:09.989Z,10.70
2018-12-23T08:58:37.677Z,11.67
2018-12-23T09:01:05.429Z,11.20
2018-12-23T09:03:33.241Z,9.03
2018-12-23T09:06:00.899Z,12.53
2018-12-23T09:08:28.615Z,10.67
2018-12-23T09:10:56.355Z,9.30
2018-12-23T09:13:24.040Z,8.30
2018-12-23T09:15:51.801Z,8.93
2018-12-23T09:18:19.737Z,7.43
2018-12-23T09:20:47.585Z,7.63
2018-12-23T09:23:15.333Z,9.57
2018-12-23T09:25:43.072Z,9.97
2018-12-23T09:28:10.735Z,11.23
2018-12-23T09:30:38.509Z,10.57
2018-12-23T09:33:06.210Z,10.60
2018-12-23T09:35:33.901Z,8.23
2018-12-23T09:38:01.891Z,8.60
2018-12-23T09:40:29.780Z,8.70
2018-12-23T09:42:57.484Z,7.60
2018-12-23T09:45:25.192Z,8.90
2018-12-23T09:47:52.929Z,7.83
2018-12-23T09:50:20.636Z,8.43
2018-12-23T09:52:48.293Z,9.70
2018-12-23T09:55:16.134Z,9.97
2018-12-23T09:57:43.921Z,13.03
2018-12-23T10:00:11.755Z,11.33
2018-12-23T10:02:39.473Z,14.33
2018-12-23T10:05:07.448Z,11.50
2018-12-23T10:07:35.410Z,12.00
2018-12-23T10:10:03.645Z,11.07
2018-12-23T10:12:31.297Z,11.30
2018-12-23T10:14:59.041Z,9.73
2018-12-23T10:17:26.737Z,11.17
2018-12-23T10:19:54.431Z,9.53
2018-12-23T10:22:22.140Z,8.40
2018-12-23T10:24:49.873Z,8.87
2018-12-23T10:27:17.601Z,8.30
2018-12-23T10:29:45.347Z,8.53
2018-12-23T10:32:13.109Z,10.57
2018-12-23T10:34:40.825Z,9.53
2018-12-23T10:37:08.546Z,8.40
2018-12-23T10:39:36.273Z,10.20
2018-12-23T10:42:04.146Z,9.67
2018-12-23T10:44:39.425Z,12.03
2018-12-23T10:47:07.173Z,11.07
2018-12-23T10:49:34.948Z,9.93
2018-12-23T10:52:02.945Z,11.57
2018-12-23T10:54:30.697Z,10.63
2018-12-23T10:56:58.377Z,19.37
2018-12-23T10:59:26.381Z,10.53
2018-12-23T11:01:55.745Z,10.63
2018-12-23T11:04:24.172Z,9.23
2018-12-23T11:06:52.019Z,9.93
2018-12-23T11:09:21.053Z,9.17
2018-12-23T11:11:48.843Z,7.67
2018-12-23T11:14:19.255Z,7.70
2018-12-23T11:16:47.041Z,8.23
2018-12-23T11:19:14.802Z,7.23
2018-12-23T11:21:42.625Z,6.80
2018-12-23T11:24:11.985Z,6.83
2018-12-23T11:26:39.770Z,7.30
2018-12-23T11:29:07.637Z,5.80
2018-12-23T11:31:36.484Z,5.20
2018-12-23T11:34:04.304Z,5.60
2018-12-23T11:36:32.275Z,5.60
2018-12-23T11:39:00.064Z,6.90
2018-12-23T11:41:28.667Z,7.27
2018-12-23T11:43:56.456Z,9.47
2018-12-23T11:46:26.529Z,5.90
2018-12-23T11:48:54.268Z,5.83
2018-12-23T11:51:22.102Z,5.40
2018-12-23T11:53:49.985Z,7.30
2018-12-23T11:56:18.890Z,10.60
2018-12-23T11:58:46.696Z,9.10
2018-12-23T12:01:14.860Z,6.90
2018-12-23T12:03:42.780Z,8.93
2018-12-23T12:06:10.549Z,8.63
2018-12-23T12:08:43.689Z,7.90
2018-12-23T12:11:08.456Z,7.83
2018-12-23T12:13:36.198Z,6.07
2018-12-23T12:16:03.942Z,7.07
2018-12-23T12:18:31.811Z,20.30
2018-12-23T12:20:59.574Z,29.10
2018-12-23T12:23:27.328Z,26.47
2018-12-23T12:25:55.198Z,16.73
2018-12-23T12:28:26.017Z,11.97
2018-12-23T12:30:53.766Z,25.07
2018-12-23T12:33:21.577Z,45.77
2018-12-23T12:35:49.409Z,10.63
2018-12-23T12:38:17.187Z,14.07
2018-12-23T12:40:45.101Z,10.97
2018-12-23T12:43:13.022Z,12.43
2018-12-23T12:45:40.816Z,14.67
2018-12-23T12:48:08.681Z,13.40
2018-12-23T12:50:36.530Z,12.73
2018-12-23T12:53:04.330Z,12.97
2018-12-23T12:55:32.259Z,13.03
2018-12-23T12:58:00.035Z,15.87
2018-12-23T13:00:27.795Z,13.70
2018-12-23T13:02:55.575Z,11.83
2018-12-23T13:05:23.373Z,14.67
2018-12-23T13:07:51.145Z,12.43
2018-12-23T13:10:18.993Z,15.93
2018-12-23T13:12:46.819Z,13.83
2018-12-23T13:15:14.596Z,12.57
2018-12-23T13:17:42.375Z,18.47
2018-12-23T13:20:12.033Z,14.87
2018-12-23T13:22:42.587Z,14.53
2018-12-23T13:25:10.353Z,15.60
2018-12-23T13:27:38.229Z,14.47
2018-12-23T13:30:07.820Z,11.90
2018-12-23T13:32:35.901Z,11.87
2018-12-23T13:35:11.031Z,11.93
2018-12-23T13:37:38.823Z,9.97
2018-12-23T13:40:34.744Z,10.37
2018-12-23T13:43:18.612Z,10.93
2018-12-23T13:45:55.661Z,11.23
2018-12-23T13:48:33.587Z,11.57
2018-12-23T13:51:09.825Z,11.70
2018-12-23T13:54:06.337Z,9.80
2018-12-23T13:57:43.171Z,11.00
2018-12-23T14:00:22.193Z,20.83
2018-12-23T14:03:05.188Z,13.93
2018-12-23T14:06:42.055Z,11.17
2018-12-23T14:09:57.036Z,9.13
2018-12-23T14:12:32.025Z,8.07
2018-12-23T14:14:59.846Z,8.30
2018-12-23T14:17:27.625Z,8.57
2018-12-23T14:19:56.503Z,8.77
2018-12-23T14:22:27.432Z,9.47
2018-12-23T14:24:55.267Z,10.03
2018-12-23T14:27:23.831Z,11.10
2018-12-23T14:29:51.602Z,11.60
2018-12-23T14:32:19.487Z,11.00
2018-12-23T14:34:47.264Z,10.70
2018-12-23T14:37:15.056Z,11.70
2018-12-23T14:39:42.863Z,10.37
2018-12-23T14:42:10.695Z,11.13
2018-12-23T14:44:38.476Z,11.50
2018-12-23T14:47:09.078Z,11.57
2018-12-23T14:49:36.921Z,12.23
2018-12-23T14:52:04.717Z,12.80
2018-12-23T14:54:34.206Z,12.23
2018-12-23T14:57:01.975Z,13.20
2018-12-23T14:59:29.705Z,13.00
2018-12-23T15:01:57.476Z,16.83
2018-12-23T15:04:25.414Z,21.47
2018-12-23T15:06:53.204Z,19.63
2018-12-23T15:09:21.045Z,26.60
2018-12-23T15:11:50.628Z,25.90
2018-12-23T15:14:18.436Z,23.83
2018-12-23T15:16:46.221Z,25.87
2018-12-23T15:19:14.037Z,27.10
2018-12-23T15:21:42.225Z,27.47
2018-12-23T15:24:11.121Z,29.80
2018-12-23T15:26:39.095Z,28.90
2018-12-23T15:29:06.951Z,28.73
2018-12-23T15:31:34.705Z,30.77
2018-12-23T15:34:02.473Z,32.13
2018-12-23T15:36:30.313Z,35.27
2018-12-23T15:38:58.099Z,38.63
2018-12-23T15:41:25.958Z,41.90
2018-12-23T15:43:53.729Z,40.20
2018-12-23T15:46:21.623Z,39.73
2018-12-23T15:48:49.552Z,41.07
2018-12-23T15:51:17.379Z,44.73
2018-12-23T15:53:46.969Z,50.23
2018-12-23T15:56:14.775Z,46.90
2018-12-23T15:58:42.595Z,40.23
2018-12-23T16:01:12.234Z,36.30
2018-12-23T16:03:40.115Z,37.40
2018-12-23T16:06:09.652Z,34.97
2018-12-23T16:08:37.509Z,34.50
2018-12-23T16:11:05.381Z,32.97
2018-12-23T16:13:33.223Z,32.73
2018-12-23T16:16:01.090Z,32.53
2018-12-23T16:18:28.925Z,31.80
2018-12-23T16:20:56.716Z,26.87
2018-12-23T16:23:24.509Z,28.40
2018-12-23T16:25:52.343Z,28.00
2018-12-23T16:28:20.123Z,25.40
2018-12-23T16:30:47.885Z,26.10
2018-12-23T16:33:15.699Z,25.93
2018-12-23T16:35:43.473Z,25.00
2018-12-23T16:38:11.244Z,26.03
2018-12-23T16:40:39.028Z,25.30
2018-12-23T16:43:06.785Z,25.37
2018-12-23T16:45:34.580Z,27.40
2018-12-23T16:48:02.457Z,30.77
2018-12-23T16:50:30.278Z,30.23
2018-12-23T16:52:58.140Z,32.00
2018-12-23T16:55:26.152Z,33.93
2018-12-23T16:57:54.106Z,36.37
2018-12-23T17:00:22.046Z,33.30
2018-12-23T17:02:49.867Z,31.80
2018-12-23T17:05:17.788Z,36.47
2018-12-23T17:07:45.603Z,36.57
2018-12-23T17:10:15.581Z,36.97
2018-12-23T17:12:43.441Z,36.23
2018-12-23T17:15:11.436Z,34.13
2018-12-23T17:17:39.377Z,32.13
2018-12-23T17:20:11.745Z,33.47
2018-12-23T17:22:39.617Z,32.17
2018-12-23T17:25:07.561Z,25.90
2018-12-23T17:27:35.345Z,22.53
2018-12-23T17:30:03.921Z,23.33
2018-12-23T17:32:31.709Z,21.17
2018-12-23T17:34:59.697Z,21.17
2018-12-23T17:37:27.569Z,22.03
2018-12-23T17:39:55.491Z,23.80
2018-12-23T17:42:23.344Z,22.43
2018-12-23T17:44:51.170Z,29.23
2018-12-23T17:47:19.175Z,33.30
2018-12-23T17:49:47.012Z,32.47
2018-12-23T17:52:22.997Z,31.03
2018-12-23T17:54:44.757Z,35.13
2018-12-23T17:57:12.537Z,30.93
2018-12-23T17:59:40.349Z,33.77
2018-12-23T18:02:08.204Z,36.23
2018-12-23T18:04:36.060Z,39.43
2018-12-23T18:07:04.176Z,40.07
2018-12-23T18:09:32.151Z,46.80
2018-12-23T18:11:59.958Z,46.47
2018-12-23T18:14:27.694Z,42.37
2018-12-23T18:16:55.475Z,44.03
2018-12-23T18:19:23.261Z,39.47
2018-12-23T18:21:51.027Z,39.43
2018-12-23T18:24:18.849Z,38.00
2018-12-23T18:26:46.729Z,38.07
2018-12-23T18:29:14.538Z,34.20
2018-12-23T18:31:42.628Z,32.50
2018-12-23T18:34:12.291Z,32.67
2018-12-23T18:36:40.167Z,32.47
2018-12-23T18:39:08.007Z,29.93
2018-12-23T18:41:35.884Z,30.50
2018-12-23T18:44:05.716Z,30.17
2018-12-23T18:46:33.488Z,28.10
2018-12-23T18:49:02.022Z,28.17
2018-12-23T18:51:29.862Z,30.03
2018-12-23T18:53:57.793Z,29.63
2018-12-23T18:56:37.541Z,28.73
2018-12-23T18:59:05.387Z,26.30
2018-12-23T19:01:34.077Z,28.00
2018-12-23T19:04:01.999Z,27.03
2018-12-23T19:06:29.842Z,25.33
2018-12-23T19:09:23.328Z,25.93
2018-12-23T19:12:35.430Z,24.83
2018-12-23T19:18:21.538Z,25.40
2018-12-23T19:22:00.291Z,26.17
2018-12-23T19:25:43.618Z,28.03
2018-12-23T19:28:22.264Z,27.10
2018-12-23T19:33:03.757Z,27.77
2018-12-23T19:37:50.193Z,27.83
2018-12-23T19:40:30.056Z,27.60
2018-12-23T19:43:13.713Z,28.17
2018-12-23T19:45:54.312Z,29.63
2018-12-23T19:49:32.791Z,32.30
2018-12-23T19:53:19.452Z,31.07
2018-12-23T19:56:09.039Z,28.13
2018-12-23T19:58:51.664Z,28.27
2018-12-23T20:01:32.413Z,30.77
2018-12-23T20:05:15.746Z,28.80
2018-12-23T20:07:51.804Z,30.60
2018-12-23T20:10:40.709Z,30.20
2018-12-23T20:15:28.145Z,29.57
2018-12-23T20:20:09.559Z,28.57
2018-12-23T20:22:53.740Z,27.07
2018-12-23T20:25:34.983Z,29.77
2018-12-23T20:30:31.912Z,31.30
2018-12-23T20:33:15.004Z,31.67
2018-12-23T20:37:59.569Z,32.10
2018-12-23T20:41:43.171Z,29.27
2018-12-23T20:44:22.417Z,23.97
2018-12-23T20:47:15.449Z,28.23
2018-12-23T20:50:10.219Z,29.03
2018-12-23T20:53:03.991Z,24.37
2018-12-23T20:55:48.860Z,28.20
2018-12-23T21:00:30.240Z,26.63
2018-12-23T21:03:14.255Z,22.50
2018-12-23T21:05:51.613Z,24.47
2018-12-23T21:12:42.774Z,24.43
2018-12-23T21:16:30.266Z,23.17
2018-12-23T21:19:12.784Z,21.83
2018-12-23T21:22:21.176Z,21.77
2018-12-23T21:25:43.910Z,25.33
2018-12-23T21:28:45.666Z,21.83
2018-12-23T21:31:41.149Z,20.60
2018-12-23T21:34:21.476Z,19.77
2018-12-23T21:37:06.384Z,18.27
2018-12-23T21:41:59.747Z,17.03
2018-12-23T21:44:39.587Z,18.83
2018-12-23T21:48:52.656Z,20.17
2018-12-23T21:53:48.396Z,19.80
2018-12-23T21:57:26.970Z,20.97
2018-12-23T22:02:13.442Z,20.93
2018-12-23T22:05:05.026Z,16.23
2018-12-23T22:09:53.484Z,17.67
2018-12-23T22:13:24.783Z,13.87
2018-12-23T22:15:54.445Z,13.83
2018-12-23T22:18:22.479Z,14.30
2018-12-23T22:20:50.353Z,13.20
2018-12-23T22:23:18.132Z,13.43
2018-12-23T22:25:45.919Z,12.87
2018-12-23T22:28:13.663Z,12.43
2018-12-23T22:30:41.443Z,11.30
2018-12-23T22:33:09.215Z,12.63
2018-12-23T22:35:36.959Z,12.13
2018-12-23T22:38:04.770Z,16.03
2018-12-23T22:40:34.410Z,13.70
2018-12-23T22:43:02.303Z,12.33
2018-12-23T22:45:30.065Z,12.97
2018-12-23T22:47:58.032Z,14.53
2018-12-23T22:50:25.868Z,13.17
2018-12-23T22:52:56.342Z,12.87
2018-12-23T22:55:25.010Z,8.93
2018-12-23T22:57:52.882Z,11.07
2018-12-23T23:00:25.499Z,8.30
2018-12-23T23:02:53.440Z,6.07
2018-12-23T23:05:21.386Z,4.97
2018-12-23T23:07:49.362Z,4.13
2018-12-23T23:10:54.331Z,3.67
2018-12-23T23:13:21.908Z,4.93
2018-12-23T23:15:49.600Z,5.30
2018-12-23T23:18:17.220Z,5.90
2018-12-23T23:20:45.008Z,6.40
2018-12-23T23:23:12.611Z,6.40
2018-12-23T23:25:40.280Z,7.87
2018-12-23T23:28:07.896Z,7.87
2018-12-23T23:30:35.739Z,9.30
2018-12-23T23:33:03.410Z,10.60
2018-12-23T23:35:30.956Z,8.60
2018-12-23T23:37:58.498Z,10.00
2018-12-23T23:40:26.118Z,10.10
2018-12-23T23:42:53.868Z,10.27
2018-12-23T23:45:21.441Z,6.00
2018-12-23T23:47:49.189Z,7.20
2018-12-23T23:50:16.777Z,7.47
2018-12-23T23:52:44.249Z,6.23
2018-12-23T23:55:12.003Z,6.17
2018-12-23T23:57:39.543Z,7.07
